Time;durP1;ratioP1;P1;durP2;ratioP2;P2;SDS_P1;SDS_P2;PMS_P1;PMS_P2;Temp;Humidity;BMP_temperature;BMP_pressure;BME280_temperature;BME280_humidity;BME280_pressure;Samples;Min_cycle;Max_cycle;Signal;HPM_P1;HPM_P2
2021/01/29 00:01:13;;;;;;;14.10;6.90;;;0.30;83.60;;;;;;5049074;28;20036;-72
2021/01/29 00:03:39;;;;;;;16.77;6.83;;;0.20;83.50;;;;;;5049456;28;20037;-71
2021/01/29 00:06:05;;;;;;;14.07;7.43;;;0.20;83.60;;;;;;5049421;28;20082;-72
2021/01/29 00:08:33;;;;;;;14.53;7.50;;;0.10;83.60;;;;;;5049737;28;20485;-72
2021/01/29 00:10:59;;;;;;;13.17;6.73;;;0.00;83.80;;;;;;5050407;28;20037;-72
2021/01/29 00:13:26;;;;;;;14.87;7.63;;;0.00;84.10;;;;;;5033087;28;20120;-72
2021/01/29 00:15:52;;;;;;;12.87;6.77;;;0.00;84.20;;;;;;5058955;28;20094;-72
2021/01/29 00:18:19;;;;;;;14.33;6.40;;;0.00;84.30;;;;;;5070541;28;20086;-71
2021/01/29 00:20:44;;;;;;;14.60;7.10;;;-0.10;84.40;;;;;;5070664;28;20077;-72
2021/01/29 00:23:10;;;;;;;13.87;6.77;;;-0.10;84.50;;;;;;5070555;28;20036;-73
2021/01/29 00:25:41;;;;;;;14.40;7.47;;;-0.10;84.50;;;;;;5070348;28;20093;-72
2021/01/29 00:28:07;;;;;;;11.88;6.55;;;0.00;84.70;;;;;;5070479;28;20044;-71
2021/01/29 00:30:34;;;;;;;13.60;6.77;;;0.00;84.80;;;;;;5069304;28;20040;-71
2021/01/29 00:33:01;;;;;;;12.73;6.60;;;0.00;85.00;;;;;;5070893;28;20035;-71
2021/01/29 00:35:29;;;;;;;14.30;6.50;;;0.00;85.20;;;;;;5064898;28;20451;-72
2021/01/29 00:37:56;;;;;;;13.13;6.77;;;0.10;85.40;;;;;;5049594;28;20045;-72
2021/01/29 00:40:22;;;;;;;12.63;6.07;;;0.10;85.50;;;;;;5050190;28;20051;-73
2021/01/29 00:42:48;;;;;;;13.37;5.87;;;0.10;85.50;;;;;;5050801;28;20037;-72
2021/01/29 00:45:16;;;;;;;12.33;6.03;;;0.20;85.50;;;;;;5051776;28;20060;-73
2021/01/29 00:47:42;;;;;;;13.37;5.70;;;0.20;85.40;;;;;;5069120;28;20507;-73
2021/01/29 00:50:09;;;;;;;12.00;5.90;;;0.30;85.30;;;;;;5070492;28;20045;-72
2021/01/29 00:52:35;;;;;;;11.93;5.40;;;0.20;85.10;;;;;;5068854;28;20043;-72
2021/01/29 00:55:00;;;;;;;9.90;4.90;;;0.20;84.90;;;;;;5069067;28;20032;-72
2021/01/29 00:57:27;;;;;;;10.37;4.97;;;0.20;85.00;;;;;;5049312;28;20033;-72
2021/01/29 01:00:14;;;;;;;12.27;4.80;;;0.20;85.20;;;;;;5050034;28;20116;-72
2021/01/29 01:02:47;;;;;;;8.77;4.53;;;0.30;85.30;;;;;;5049204;28;20092;-72
2021/01/29 01:05:15;;;;;;;12.40;5.10;;;0.30;85.20;;;;;;5052435;28;20045;-72
2021/01/29 01:07:40;;;;;;;10.80;4.57;;;0.30;85.20;;;;;;5054358;28;20129;-72
2021/01/29 01:10:25;;;;;;;10.37;4.53;;;0.30;85.10;;;;;;5053769;28;20151;-73
2021/01/29 01:13:09;;;;;;;9.77;4.60;;;0.30;84.90;;;;;;5053979;28;20036;-72
2021/01/29 01:15:55;;;;;;;8.70;4.83;;;0.30;84.90;;;;;;5039277;28;20562;-73
2021/01/29 01:18:21;;;;;;;12.13;4.90;;;0.30;85.00;;;;;;5035454;28;20072;-71
2021/01/29 01:21:14;;;;;;;11.70;5.47;;;0.30;85.00;;;;;;5050970;28;20508;-72
2021/01/29 01:23:43;;;;;;;11.50;4.67;;;0.30;85.00;;;;;;5052709;28;20133;-72
2021/01/29 01:26:09;;;;;;;10.23;4.43;;;0.30;85.00;;;;;;5052654;28;20466;-72
2021/01/29 01:28:53;;;;;;;13.40;5.17;;;0.40;85.00;;;;;;5053265;28;20420;-72
2021/01/29 01:31:22;;;;;;;10.17;4.67;;;0.40;85.00;;;;;;5052406;28;20045;-72
2021/01/29 01:34:08;;;;;;;8.90;4.73;;;0.40;85.10;;;;;;5053597;28;20396;-72
2021/01/29 01:37:01;;;;;;;9.23;4.20;;;0.40;85.20;;;;;;5051197;28;20090;-72
2021/01/29 01:39:53;;;;;;;13.53;4.50;;;0.40;85.00;;;;;;5051388;28;20040;-72
2021/01/29 01:42:18;;;;;;;10.17;4.43;;;0.40;84.90;;;;;;5051958;28;20037;-73
2021/01/29 01:44:44;;;;;;;10.33;4.33;;;0.40;85.00;;;;;;5052135;28;20120;-72
2021/01/29 01:47:27;;;;;;;10.63;4.13;;;0.40;85.00;;;;;;5051935;28;20037;-72
2021/01/29 01:50:38;;;;;;;10.10;3.90;;;0.40;85.00;;;;;;5015648;28;20045;-72
2021/01/29 01:53:29;;;;;;;9.43;3.77;;;0.50;85.00;;;;;;5051927;28;20044;-72
2021/01/29 01:56:01;;;;;;;9.50;3.83;;;0.50;84.80;;;;;;5053478;28;20405;-73
2021/01/29 01:58:56;;;;;;;8.13;3.60;;;0.40;84.60;;;;;;5053018;28;20033;-72
2021/01/29 02:01:51;;;;;;;9.07;3.93;;;0.40;84.80;;;;;;5051404;28;20444;-72
2021/01/29 02:04:53;;;;;;;10.03;3.80;;;0.40;84.80;;;;;;5052719;28;20397;-72
2021/01/29 02:07:57;;;;;;;8.50;3.90;;;0.40;84.70;;;;;;5028674;28;20114;-72
2021/01/29 02:10:41;;;;;;;9.33;3.53;;;0.40;84.70;;;;;;5052423;28;20040;-72
2021/01/29 02:13:10;;;;;;;8.23;3.53;;;0.40;84.80;;;;;;5051789;28;20060;-72
2021/01/29 02:15:44;;;;;;;8.53;3.20;;;0.40;84.70;;;;;;5051650;28;20040;-72
2021/01/29 02:18:33;;;;;;;8.10;3.23;;;0.40;84.70;;;;;;5051681;28;20032;-72
2021/01/29 02:21:57;;;;;;;9.23;3.33;;;0.40;84.70;;;;;;5051040;28;20447;-72
2021/01/29 02:25:09;;;;;;;9.70;3.10;;;0.40;84.70;;;;;;5052328;28;20469;-72
2021/01/29 02:27:54;;;;;;;9.77;3.70;;;0.30;84.50;;;;;;5035848;28;20079;-72
2021/01/29 02:31:06;;;;;;;7.38;3.38;;;0.30;84.50;;;;;;5050013;28;20518;-72
2021/01/29 02:33:48;;;;;;;8.33;3.20;;;0.30;84.60;;;;;;5051196;28;20033;-71
2021/01/29 02:36:46;;;;;;;7.47;3.50;;;0.30;84.60;;;;;;5051411;28;20040;-73
2021/01/29 02:39:27;;;;;;;10.60;3.40;;;0.30;84.70;;;;;;5051360;28;20498;-71
2021/01/29 02:42:23;;;;;;;9.73;3.37;;;0.30;84.80;;;;;;5052262;28;20041;-72
2021/01/29 02:45:15;;;;;;;6.80;2.63;;;0.30;84.70;;;;;;5050809;28;20052;-73
2021/01/29 02:48:14;;;;;;;7.47;2.80;;;0.30;84.70;;;;;;5041075;28;20037;-72
2021/01/29 02:51:20;;;;;;;8.07;3.00;;;0.30;84.60;;;;;;5050428;28;20111;-72
2021/01/29 02:54:13;;;;;;;8.70;2.73;;;0.20;84.60;;;;;;5051852;28;20405;-72
2021/01/29 02:57:06;;;;;;;11.03;3.13;;;0.20;84.80;;;;;;5050626;28;20036;-72
2021/01/29 02:59:32;;;;;;;6.23;2.70;;;0.20;84.80;;;;;;5052469;28;20040;-72
2021/01/29 03:02:54;;;;;;;7.47;3.00;;;0.20;84.70;;;;;;5051694;28;20361;-71
2021/01/29 03:05:40;;;;;;;6.93;2.78;;;0.20;84.80;;;;;;5050647;28;20113;-72
2021/01/29 03:08:14;;;;;;;7.60;2.90;;;0.20;84.80;;;;;;5051687;28;20116;-72
2021/01/29 03:11:08;;;;;;;6.10;2.70;;;0.20;84.80;;;;;;5051830;28;20474;-71
2021/01/29 03:14:05;;;;;;;7.87;2.53;;;0.20;84.80;;;;;;5051770;28;20106;-72
2021/01/29 03:16:49;;;;;;;8.47;2.97;;;0.20;84.80;;;;;;5050489;28;20040;-73
2021/01/29 03:20:00;;;;;;;6.77;2.73;;;0.20;84.80;;;;;;5051496;28;20409;-72
2021/01/29 03:22:54;;;;;;;8.27;2.90;;;0.20;84.80;;;;;;5051424;28;20663;-72
2021/01/29 03:25:51;;;;;;;7.47;2.73;;;0.20;84.80;;;;;;5051205;28;20095;-71
2021/01/29 03:28:41;;;;;;;6.40;2.87;;;0.20;84.80;;;;;;5051647;28;20159;-72
2021/01/29 03:31:26;;;;;;;9.30;2.93;;;0.30;84.80;;;;;;5050904;28;20087;-70
2021/01/29 03:34:15;;;;;;;7.07;2.67;;;0.20;84.80;;;;;;5051673;28;20582;-72
2021/01/29 03:37:24;;;;;;;5.20;2.17;;;0.30;84.90;;;;;;5051345;28;20524;-72
2021/01/29 03:40:09;;;;;;;7.83;2.40;;;0.30;84.80;;;;;;5051029;28;20067;-73
2021/01/29 03:43:14;;;;;;;6.67;2.50;;;0.30;84.70;;;;;;5051151;28;20040;-71
2021/01/29 03:46:13;;;;;;;7.10;2.37;;;0.30;84.70;;;;;;5051055;28;20040;-72
2021/01/29 03:49:27;;;;;;;8.53;2.43;;;0.30;84.80;;;;;;5051144;28;20543;-72
2021/01/29 03:52:40;;;;;;;9.30;2.63;;;0.30;84.70;;;;;;5013765;28;20128;-72
2021/01/29 03:55:36;;;;;;;7.17;2.47;;;0.30;84.70;;;;;;5050774;28;20108;-72
2021/01/29 03:58:39;;;;;;;6.90;2.63;;;0.30;84.80;;;;;;5050961;28;20059;-71
2021/01/29 04:01:54;;;;;;;7.90;2.60;;;0.30;84.70;;;;;;5050530;28;20036;-72
2021/01/29 04:04:44;;;;;;;7.23;3.00;;;0.20;84.60;;;;;;5049707;28;20101;-71
2021/01/29 04:07:51;;;;;;;10.50;2.90;;;0.30;84.80;;;;;;5034082;28;20036;-72
2021/01/29 04:10:36;;;;;;;7.50;3.00;;;0.30;84.70;;;;;;5050653;28;20060;-72
2021/01/29 04:13:42;;;;;;;7.77;2.57;;;0.30;84.60;;;;;;5027543;28;20087;-71
2021/01/29 04:16:19;;;;;;;6.43;2.30;;;0.30;84.70;;;;;;5049588;28;20040;-71
2021/01/29 04:18:51;;;;;;;8.47;3.00;;;0.30;84.70;;;;;;5050728;28;20033;-71
2021/01/29 04:21:33;;;;;;;7.27;3.17;;;0.30;84.70;;;;;;5050748;28;20093;-72
2021/01/29 04:24:25;;;;;;;7.37;2.90;;;0.30;84.80;;;;;;5050551;28;20033;-72
2021/01/29 04:27:13;;;;;;;9.37;2.60;;;0.30;84.70;;;;;;5050723;28;20037;-72
2021/01/29 04:29:47;;;;;;;7.07;2.67;;;0.30;84.80;;;;;;5050914;28;20040;-72
2021/01/29 04:32:17;;;;;;;5.97;2.23;;;0.30;84.70;;;;;;5050388;28;20610;-72
2021/01/29 04:34:46;;;;;;;7.67;3.03;;;0.30;84.70;;;;;;5049665;28;20083;-72
2021/01/29 04:37:19;;;;;;;10.00;3.07;;;0.30;84.60;;;;;;5049136;28;20049;-72
2021/01/29 04:39:48;;;;;;;6.63;3.20;;;0.20;84.60;;;;;;5053006;28;20123;-72
2021/01/29 04:42:56;;;;;;;8.33;2.50;;;0.20;84.60;;;;;;5054207;28;20175;-71
2021/01/29 04:46:00;;;;;;;7.63;2.57;;;0.20;84.70;;;;;;4956780;28;20130;-72
2021/01/29 04:48:47;;;;;;;8.80;3.00;;;0.20;84.80;;;;;;5052955;28;20045;-72
2021/01/29 04:51:22;;;;;;;8.73;3.30;;;0.20;84.80;;;;;;5054036;28;20511;-72
2021/01/29 04:54:28;;;;;;;9.83;3.17;;;0.20;84.80;;;;;;5054700;28;20053;-72
2021/01/29 04:57:37;;;;;;;10.07;3.10;;;0.20;84.80;;;;;;5053065;28;20037;-73
2021/01/29 05:00:17;;;;;;;8.20;2.93;;;0.20;84.80;;;;;;5052875;28;20138;-71
2021/01/29 05:03:26;;;;;;;9.50;3.30;;;0.30;84.80;;;;;;5054105;28;20400;-72
2021/01/29 05:06:29;;;;;;;10.13;3.03;;;0.20;84.80;;;;;;5054075;28;20044;-72
2021/01/29 05:09:37;;;;;;;7.57;2.87;;;0.20;84.70;;;;;;5054105;28;20175;-71
2021/01/29 05:12:30;;;;;;;6.20;2.40;;;0.20;84.70;;;;;;5052630;28;20037;-71
2021/01/29 05:15:13;;;;;;;9.57;2.80;;;0.20;84.80;;;;;;5054227;28;20060;-72
2021/01/29 05:17:41;;;;;;;8.50;2.23;;;0.20;84.90;;;;;;5036254;28;20102;-72
2021/01/29 05:20:17;;;;;;;8.87;3.03;;;0.20;84.90;;;;;;5053877;28;20516;-71
2021/01/29 05:23:04;;;;;;;6.63;2.10;;;0.10;84.80;;;;;;5052485;28;20044;-72
2021/01/29 05:25:47;;;;;;;7.93;2.50;;;0.20;84.80;;;;;;5053570;28;20033;-72
2021/01/29 05:28:44;;;;;;;5.40;1.97;;;0.10;84.70;;;;;;5054036;28;20392;-71
2021/01/29 05:31:28;;;;;;;7.53;3.03;;;0.10;84.80;;;;;;5051263;28;20043;-72
2021/01/29 05:34:31;;;;;;;7.50;2.40;;;0.10;84.80;;;;;;5053565;28;20040;-72
2021/01/29 05:37:12;;;;;;;13.07;3.00;;;0.10;84.90;;;;;;5052132;28;20036;-72
2021/01/29 05:39:48;;;;;;;;;;;0.10;84.80;;;;;;5054270;28;20116;-73
2021/01/29 05:42:33;;;;;;;6.30;2.13;;;0.10;84.80;;;;;;5053125;28;20292;-72
2021/01/29 05:45:18;;;;;;;6.30;2.30;;;0.10;84.70;;;;;;5054174;28;20060;-71
2021/01/29 05:47:55;;;;;;;7.57;2.13;;;0.20;84.60;;;;;;5053551;28;20055;-70
2021/01/29 05:50:38;;;;;;;7.10;2.40;;;0.20;84.60;;;;;;5052502;28;20059;-70
2021/01/29 05:53:30;;;;;;;9.33;2.30;;;0.10;84.60;;;;;;5053541;28;20128;-70
2021/01/29 05:56:17;;;;;;;11.50;2.13;;;0.20;84.50;;;;;;5051927;28;20032;-70
2021/01/29 05:58:43;;;;;;;6.20;1.77;;;0.10;84.40;;;;;;5053309;28;20040;-70
2021/01/29 06:01:53;;;;;;;6.90;2.07;;;0.10;84.40;;;;;;5053043;28;20092;-71
2021/01/29 06:04:55;;;;;;;6.93;2.40;;;0.10;84.30;;;;;;4955903;28;20130;-71
2021/01/29 06:07:35;;;;;;;5.90;1.90;;;0.10;84.30;;;;;;5068444;28;20041;-70
2021/01/29 06:10:23;;;;;;;6.50;2.00;;;0.10;84.20;;;;;;5051823;28;20056;-71
2021/01/29 06:13:00;;;;;;;6.33;1.97;;;0.10;84.20;;;;;;5052836;28;20040;-70
2021/01/29 06:16:00;;;;;;;5.10;1.63;;;0.10;84.20;;;;;;5052790;28;20037;-70
2021/01/29 06:18:47;;;;;;;7.47;2.10;;;0.10;84.20;;;;;;5053053;28;20037;-70
2021/01/29 06:21:21;;;;;;;6.20;1.70;;;0.10;84.20;;;;;;5052425;28;20044;-70
2021/01/29 06:24:17;;;;;;;8.70;2.10;;;0.10;84.10;;;;;;5051744;28;20037;-70
2021/01/29 06:27:04;;;;;;;9.63;2.00;;;0.10;84.10;;;;;;5052376;28;20083;-70
2021/01/29 06:29:50;;;;;;;8.03;2.00;;;0.00;84.00;;;;;;5052437;28;20081;-70
2021/01/29 06:33:13;;;;;;;6.00;1.67;;;0.10;84.10;;;;;;5001356;28;20029;-70
2021/01/29 06:36:16;;;;;;;11.97;2.40;;;0.10;84.10;;;;;;5010283;28;20038;-70
2021/01/29 06:38:50;;;;;;;5.53;1.97;;;0.10;84.00;;;;;;5010434;28;20053;-71
2021/01/29 06:41:49;;;;;;;6.60;1.63;;;0.10;84.00;;;;;;5043033;28;20039;-70
2021/01/29 06:44:47;;;;;;;6.10;1.90;;;0.10;83.90;;;;;;5051919;28;20037;-70
2021/01/29 06:47:29;;;;;;;6.67;1.60;;;0.10;83.90;;;;;;5052209;28;20037;-70
2021/01/29 06:50:16;;;;;;;5.17;1.60;;;0.10;83.70;;;;;;5052376;28;20051;-70
2021/01/29 06:53:06;;;;;;;4.27;1.50;;;0.10;83.60;;;;;;5052168;28;20037;-70
2021/01/29 06:55:51;;;;;;;5.72;1.75;;;0.10;83.60;;;;;;5051939;28;20451;-70
2021/01/29 06:58:57;;;;;;;8.83;1.93;;;0.10;83.60;;;;;;5052304;28;20075;-70
2021/01/29 07:01:41;;;;;;;6.33;2.17;;;0.10;83.60;;;;;;5050743;28;20041;-70
2021/01/29 07:04:34;;;;;;;5.03;1.47;;;0.00;83.40;;;;;;5052283;28;20033;-70
2021/01/29 07:07:19;;;;;;;7.27;1.40;;;0.10;83.50;;;;;;5051613;28;20036;-70
2021/01/29 07:09:57;;;;;;;4.97;1.70;;;0.10;83.40;;;;;;5051434;28;20045;-70
2021/01/29 07:12:52;;;;;;;4.60;1.60;;;0.10;83.20;;;;;;5050637;28;20134;-70
2021/01/29 07:15:29;;;;;;;5.67;1.70;;;0.00;83.20;;;;;;4964051;28;20042;-70
2021/01/29 07:17:58;;;;;;;6.33;1.67;;;0.10;83.20;;;;;;5051682;28;20489;-70
2021/01/29 07:20:42;;;;;;;6.00;1.70;;;0.10;83.20;;;;;;5050443;28;20037;-71
2021/01/29 07:23:33;;;;;;;6.47;1.70;;;0.10;83.00;;;;;;5051643;28;20041;-69
2021/01/29 07:26:16;;;;;;;6.80;1.70;;;0.10;83.40;;;;;;5050357;28;20044;-68
2021/01/29 07:29:01;;;;;;;5.20;1.40;;;0.10;82.90;;;;;;5050011;28;20044;-70
2021/01/29 07:31:35;;;;;;;7.97;1.70;;;0.20;82.90;;;;;;5051199;28;20080;-70
2021/01/29 07:34:23;;;;;;;6.60;1.50;;;0.20;82.80;;;;;;5051412;28;20436;-70
2021/01/29 07:37:07;;;;;;;6.37;1.57;;;0.20;82.80;;;;;;5051206;28;20052;-70
2021/01/29 07:39:55;;;;;;;8.83;1.90;;;0.20;82.40;;;;;;5051565;28;20052;-69
2021/01/29 07:42:27;;;;;;;5.27;1.67;;;0.20;82.30;;;;;;5050975;28;20032;-70
2021/01/29 07:45:17;;;;;;;7.50;1.90;;;0.30;82.20;;;;;;5051435;28;20568;-70
2021/01/29 07:47:55;;;;;;;5.75;1.67;;;0.20;81.90;;;;;;5052601;28;20051;-69
2021/01/29 07:50:34;;;;;;;6.87;1.43;;;0.30;82.10;;;;;;5060870;28;20075;-70
2021/01/29 07:53:18;;;;;;;4.70;1.27;;;0.30;82.00;;;;;;5058977;28;20095;-69
2021/01/29 07:56:02;;;;;;;3.30;1.30;;;0.30;81.60;;;;;;5069811;28;20405;-69
2021/01/29 07:58:53;;;;;;;5.47;1.50;;;0.30;81.20;;;;;;5056028;28;20312;-70
2021/01/29 08:01:29;;;;;;;;;;;0.30;81.30;;;;;;5062802;28;20041;-68
2021/01/29 08:04:36;;;;;;;5.97;1.50;;;0.30;80.90;;;;;;5052574;28;19987;-70
2021/01/29 08:07:17;;;;;;;5.73;1.47;;;0.30;80.80;;;;;;5006964;28;20049;-69
2021/01/29 08:09:55;;;;;;;4.05;0.82;;;0.30;80.90;;;;;;5057848;28;20461;-68
2021/01/29 08:12:23;;;;;;;5.63;1.50;;;0.40;80.70;;;;;;5060382;28;20040;-69
2021/01/29 08:15:17;;;;;;;5.13;1.30;;;0.40;80.40;;;;;;5059023;28;20067;-70
2021/01/29 08:18:31;;;;;;;2.07;0.83;;;0.40;80.50;;;;;;5062910;28;20124;-70
2021/01/29 08:21:17;;;;;;;5.40;1.40;;;0.50;80.20;;;;;;5049021;28;20423;-68
2021/01/29 08:24:11;;;;;;;5.10;1.50;;;0.50;79.80;;;;;;5061452;28;20497;-69
2021/01/29 08:26:55;;;;;;;7.33;2.43;;;0.50;79.70;;;;;;5053161;28;20041;-69
2021/01/29 08:29:45;;;;;;;4.73;1.40;;;0.60;79.80;;;;;;5061539;28;20060;-69
2021/01/29 08:33:00;;;;;;;7.17;1.70;;;0.70;79.80;;;;;;5067312;28;20040;-69
2021/01/29 08:35:50;;;;;;;5.27;1.60;;;0.80;79.30;;;;;;5061094;28;20477;-70
2021/01/29 08:38:44;;;;;;;6.77;1.50;;;0.90;79.30;;;;;;5024019;28;20447;-69
2021/01/29 08:41:18;;;;;;;8.87;1.70;;;1.10;79.00;;;;;;5055954;28;20035;-70
2021/01/29 08:44:02;;;;;;;5.37;1.50;;;1.20;78.90;;;;;;5058788;28;20045;-70
2021/01/29 08:46:37;;;;;;;7.73;1.60;;;1.30;78.70;;;;;;5066261;28;20071;-69
2021/01/29 08:49:22;;;;;;;4.73;1.23;;;1.40;78.20;;;;;;5055648;28;20032;-71
2021/01/29 08:51:58;;;;;;;4.60;1.43;;;1.50;77.50;;;;;;5059864;28;20391;-68
2021/01/29 08:55:01;;;;;;;7.20;1.77;;;1.50;77.10;;;;;;5059581;28;20037;-71
2021/01/29 08:57:42;;;;;;;8.33;2.47;;;1.40;76.50;;;;;;5048721;28;20031;-71
2021/01/29 09:00:18;;;;;;;7.60;2.22;;;1.50;76.50;;;;;;5064447;28;20112;-71
2021/01/29 09:03:16;;;;;;;6.57;1.87;;;1.40;76.10;;;;;;5066270;28;20041;-71
2021/01/29 09:05:45;;;;;;;6.67;1.50;;;1.40;75.70;;;;;;5060641;28;20040;-71
2021/01/29 09:08:19;;;;;;;6.73;1.60;;;1.40;75.30;;;;;;5052391;28;20032;-71
2021/01/29 09:11:07;;;;;;;5.93;1.80;;;1.30;75.40;;;;;;5045699;28;20048;-70
2021/01/29 09:13:34;;;;;;;5.47;1.73;;;1.40;75.60;;;;;;5067726;28;20396;-71
2021/01/29 09:16:20;;;;;;;6.13;1.70;;;1.40;75.20;;;;;;5069906;28;20039;-71
2021/01/29 09:19:15;;;;;;;3.63;1.30;;;1.40;75.00;;;;;;5056522;28;20501;-71
2021/01/29 09:22:09;;;;;;;7.97;1.97;;;1.40;74.50;;;;;;5067907;28;20420;-71
2021/01/29 09:24:37;;;;;;;3.27;1.40;;;1.40;74.40;;;;;;5058266;28;20556;-67
2021/01/29 09:27:06;;;;;;;5.07;1.83;;;1.40;73.80;;;;;;5067727;28;20106;-66
2021/01/29 09:29:38;;;;;;;4.07;1.20;;;1.30;73.60;;;;;;5055384;28;20037;-67
2021/01/29 09:32:11;;;;;;;5.50;1.70;;;1.30;73.50;;;;;;5065463;28;20037;-66
2021/01/29 09:34:42;;;;;;;5.90;1.73;;;1.30;73.00;;;;;;5063848;28;20128;-71
2021/01/29 09:37:17;;;;;;;6.20;1.90;;;1.30;73.30;;;;;;5073219;28;20382;-71
2021/01/29 09:39:57;;;;;;;4.97;1.60;;;1.40;73.30;;;;;;5072299;28;20474;-71
2021/01/29 09:42:46;;;;;;;6.80;1.77;;;1.40;73.20;;;;;;5073016;28;20481;-71
2021/01/29 09:45:24;;;;;;;4.47;1.73;;;1.40;72.70;;;;;;5066887;28;20041;-68
2021/01/29 09:47:58;;;;;;;5.40;1.90;;;1.50;72.40;;;;;;5050997;28;20040;-70
2021/01/29 09:50:26;;;;;;;4.83;1.77;;;1.50;72.40;;;;;;5067396;28;20485;-70
2021/01/29 09:53:04;;;;;;;4.60;1.50;;;1.50;72.30;;;;;;5051727;28;20485;-70
2021/01/29 09:55:32;;;;;;;3.93;1.40;;;1.40;72.00;;;;;;5070090;28;20060;-70
2021/01/29 09:58:11;;;;;;;4.13;1.43;;;1.50;71.90;;;;;;5066368;28;20132;-70
2021/01/29 10:00:40;;;;;;;6.53;1.43;;;1.50;72.00;;;;;;5050670;28;20044;-69
2021/01/29 10:03:30;;;;;;;4.43;1.33;;;1.50;71.70;;;;;;5051381;28;20037;-70
2021/01/29 10:06:10;;;;;;;4.18;1.27;;;1.50;71.30;;;;;;5057352;28;20036;-69
2021/01/29 10:08:44;;;;;;;5.50;1.40;;;1.50;71.10;;;;;;5072699;28;20034;-70
2021/01/29 10:11:21;;;;;;;3.67;1.20;;;1.50;70.90;;;;;;5072211;28;20397;-70
2021/01/29 10:14:14;;;;;;;3.83;1.30;;;1.40;70.50;;;;;;5072187;28;20037;-70
2021/01/29 10:16:52;;;;;;;3.77;1.50;;;1.40;70.50;;;;;;5072387;28;20029;-70
2021/01/29 10:19:18;;;;;;;3.07;1.30;;;1.40;70.40;;;;;;5054856;28;20371;-69
2021/01/29 10:21:59;;;;;;;4.67;1.33;;;1.50;70.40;;;;;;5053980;28;20054;-70
2021/01/29 10:24:40;;;;;;;;;;;1.50;70.00;;;;;;5063600;28;20036;-69
2021/01/29 10:27:33;;;;;;;3.97;1.30;;;1.60;69.90;;;;;;5052192;28;19923;-69
2021/01/29 10:30:08;;;;;;;6.00;1.57;;;1.50;69.80;;;;;;5059941;28;20044;-69
2021/01/29 10:32:36;;;;;;;5.03;1.20;;;1.60;69.90;;;;;;5060466;28;20044;-70
2021/01/29 10:35:21;;;;;;;7.97;1.50;;;1.60;69.50;;;;;;5066325;28;20404;-69
2021/01/29 10:38:11;;;;;;;4.27;1.37;;;1.60;69.30;;;;;;5070528;28;20045;-67
2021/01/29 10:41:07;;;;;;;4.80;1.63;;;1.70;69.20;;;;;;5054295;28;20091;-68
2021/01/29 10:43:56;;;;;;;2.10;1.00;;;1.80;69.00;;;;;;5066586;28;20397;-70
2021/01/29 10:46:30;;;;;;;3.83;1.30;;;1.80;68.60;;;;;;5067684;28;20076;-67
2021/01/29 10:49:21;;;;;;;3.67;1.20;;;1.80;68.20;;;;;;5051404;28;20037;-69
2021/01/29 10:52:29;;;;;;;3.63;1.17;;;1.90;68.40;;;;;;5050033;28;20092;-67
2021/01/29 10:54:55;;;;;;;2.73;1.03;;;2.00;68.30;;;;;;5024719;28;20553;-67
2021/01/29 10:57:31;;;;;;;4.60;1.40;;;2.10;68.20;;;;;;5050015;28;20064;-70
2021/01/29 11:00:20;;;;;;;4.90;1.30;;;2.20;67.30;;;;;;5040207;28;20099;-70
2021/01/29 11:03:05;;;;;;;3.70;0.90;;;2.10;67.20;;;;;;5061736;28;20048;-68
2021/01/29 11:05:34;;;;;;;2.27;1.10;;;2.20;67.10;;;;;;5034930;28;20039;-69
2021/01/29 11:08:30;;;;;;;3.80;1.40;;;2.20;66.60;;;;;;5050647;28;20040;-69
2021/01/29 11:11:07;;;;;;;4.17;1.40;;;2.10;66.20;;;;;;5032819;28;20045;-69
2021/01/29 11:14:16;;;;;;;5.53;1.50;;;2.10;66.40;;;;;;5051716;28;20029;-70
2021/01/29 11:17:12;;;;;;;4.97;1.20;;;2.10;66.00;;;;;;5070916;28;20040;-70
2021/01/29 11:19:40;;;;;;;4.20;1.10;;;2.10;66.20;;;;;;5070779;28;20090;-69
2021/01/29 11:22:37;;;;;;;3.90;1.10;;;2.00;66.10;;;;;;5070877;28;20029;-70
2021/01/29 11:25:19;;;;;;;5.57;1.63;;;2.00;65.70;;;;;;5055427;28;20041;-70
2021/01/29 11:27:58;;;;;;;3.33;1.30;;;1.90;65.20;;;;;;5070541;28;20178;-71
2021/01/29 11:30:50;;;;;;;4.17;1.33;;;1.80;65.60;;;;;;5070880;28;20097;-71
2021/01/29 11:33:25;;;;;;;3.87;1.30;;;1.80;65.70;;;;;;5070761;28;20046;-71
2021/01/29 11:35:56;;;;;;;4.63;1.50;;;1.70;65.60;;;;;;5054418;28;20048;-70
2021/01/29 11:38:34;;;;;;;3.55;1.40;;;1.70;65.70;;;;;;5050680;28;20516;-71
2021/01/29 11:41:14;;;;;;;5.93;1.70;;;1.70;65.50;;;;;;5049400;28;20037;-70
2021/01/29 11:44:12;;;;;;;4.10;1.40;;;1.70;65.70;;;;;;5069788;28;20303;-70
2021/01/29 11:47:13;;;;;;;6.80;1.70;;;1.70;65.50;;;;;;5070827;28;20463;-73
2021/01/29 11:49:58;;;;;;;5.60;1.50;;;1.60;65.50;;;;;;5070113;28;20044;-73
2021/01/29 11:52:56;;;;;;;4.57;1.70;;;1.60;65.40;;;;;;5060619;28;20547;-73
2021/01/29 11:55:50;;;;;;;6.03;1.73;;;1.60;66.00;;;;;;5065967;28;20036;-74
2021/01/29 11:58:45;;;;;;;4.70;1.30;;;1.70;65.60;;;;;;5025023;28;20531;-73
2021/01/29 12:01:26;;;;;;;3.83;1.40;;;1.70;65.60;;;;;;5060190;28;20058;-73
2021/01/29 12:04:17;;;;;;;4.60;1.60;;;1.70;65.30;;;;;;5070730;28;20033;-72
2021/01/29 12:07:15;;;;;;;4.07;1.43;;;1.70;65.20;;;;;;5070437;28;20094;-73
2021/01/29 12:09:47;;;;;;;5.73;1.70;;;1.60;65.10;;;;;;5037647;28;20412;-73
2021/01/29 12:12:24;;;;;;;5.70;1.80;;;1.50;65.20;;;;;;5058222;28;20500;-72
2021/01/29 12:15:13;;;;;;;5.43;1.63;;;1.50;65.70;;;;;;5062494;28;20086;-73
2021/01/29 12:17:41;;;;;;;4.93;1.43;;;1.60;66.00;;;;;;5052118;28;20059;-73
2021/01/29 12:20:17;;;;;;;4.47;1.50;;;1.60;66.10;;;;;;5056944;28;20282;-74
2021/01/29 12:22:50;;;;;;;4.47;1.50;;;1.60;66.70;;;;;;5031606;28;20037;-73
2021/01/29 12:25:22;;;;;;;4.73;1.60;;;1.60;66.10;;;;;;5066325;28;20032;-73
2021/01/29 12:28:18;;;;;;;5.90;1.70;;;1.60;66.40;;;;;;5062034;28;20040;-73
2021/01/29 12:30:58;;;;;;;6.43;2.10;;;1.70;66.30;;;;;;5058923;28;20500;-73
2021/01/29 12:33:28;;;;;;;7.03;2.13;;;1.70;66.10;;;;;;5053739;28;20044;-73
2021/01/29 12:35:57;;;;;;;6.13;2.00;;;1.60;66.10;;;;;;5050271;28;20037;-73
2021/01/29 12:38:43;;;;;;;5.20;1.50;;;1.60;66.20;;;;;;5043225;28;20040;-73
2021/01/29 12:41:09;;;;;;;8.57;1.97;;;1.60;66.40;;;;;;5049669;28;20033;-73
2021/01/29 12:44:03;;;;;;;6.90;1.83;;;1.60;66.40;;;;;;5050785;28;20466;-73
2021/01/29 12:46:37;;;;;;;8.17;1.90;;;1.50;66.60;;;;;;5056344;28;20473;-74
2021/01/29 12:49:05;;;;;;;2.73;0.80;;;1.50;66.80;;;;;;5055376;28;20048;-72
2021/01/29 12:51:49;;;;;;;6.27;1.70;;;1.50;66.90;;;;;;5058707;28;20041;-73
2021/01/29 12:54:21;;;;;;;4.40;1.70;;;1.40;67.20;;;;;;5058012;28;20129;-74
2021/01/29 12:57:03;;;;;;;7.20;2.00;;;1.40;67.50;;;;;;5059850;28;20033;-72
2021/01/29 12:59:47;;;;;;;5.07;1.43;;;1.40;67.70;;;;;;5066309;28;20033;-72
2021/01/29 13:02:42;;;;;;;4.20;1.40;;;1.50;67.80;;;;;;5065414;28;20059;-72
2021/01/29 13:05:33;;;;;;;6.20;1.70;;;1.40;67.90;;;;;;5055765;28;20029;-72
2021/01/29 13:08:17;;;;;;;7.07;2.70;;;1.30;68.20;;;;;;5025413;28;20040;-73
2021/01/29 13:11:16;;;;;;;5.07;1.80;;;1.20;68.50;;;;;;5059994;28;20527;-73
2021/01/29 13:13:54;;;;;;;5.10;2.17;;;1.20;68.90;;;;;;5061385;28;20040;-72
2021/01/29 13:16:46;;;;;;;10.77;2.67;;;1.20;69.10;;;;;;5058525;28;20040;-73
2021/01/29 13:19:29;;;;;;;7.03;2.03;;;1.10;69.10;;;;;;5021364;28;20438;-73
2021/01/29 13:21:58;;;;;;;7.10;2.33;;;1.10;69.60;;;;;;5053396;28;20036;-73
2021/01/29 13:24:30;;;;;;;9.57;2.30;;;1.00;70.00;;;;;;5054498;28;20087;-73
2021/01/29 13:27:12;;;;;;;7.23;2.07;;;0.90;70.40;;;;;;5055184;28;20041;-73
2021/01/29 13:29:37;;;;;;;6.50;2.00;;;0.80;70.70;;;;;;5054778;28;20544;-73
2021/01/29 13:32:26;;;;;;;7.97;2.03;;;0.80;71.30;;;;;;5069672;28;20111;-72
2021/01/29 13:34:54;;;;;;;5.07;1.67;;;0.70;72.10;;;;;;5046103;28;20512;-73
2021/01/29 13:37:23;;;;;;;5.47;1.60;;;0.70;73.10;;;;;;5065980;28;20024;-73
2021/01/29 13:39:50;;;;;;;7.17;2.10;;;0.60;73.00;;;;;;5049645;28;20043;-73
2021/01/29 13:42:37;;;;;;;5.13;2.00;;;0.50;73.50;;;;;;5064157;28;20025;-73
2021/01/29 13:45:03;;;;;;;6.87;1.80;;;0.40;74.10;;;;;;5063308;28;20044;-73
2021/01/29 13:47:37;;;;;;;5.77;2.00;;;0.40;74.80;;;;;;5053743;28;20043;-72
2021/01/29 13:50:26;;;;;;;6.03;2.13;;;0.40;75.20;;;;;;5054223;28;20060;-72
2021/01/29 13:52:55;;;;;;;10.07;2.43;;;0.40;75.80;;;;;;5064071;28;20037;-72
2021/01/29 13:55:36;;;;;;;7.03;2.07;;;0.40;76.10;;;;;;5062348;28;20032;-73
2021/01/29 13:58:10;;;;;;;2.00;0.83;;;0.40;76.80;;;;;;5061335;28;20033;-73
2021/01/29 14:00:52;;;;;;;6.43;2.20;;;0.30;77.00;;;;;;5056909;28;20037;-74
2021/01/29 14:03:31;;;;;;;6.07;2.03;;;0.30;77.30;;;;;;5049947;28;20045;-73
2021/01/29 14:05:58;;;;;;;8.07;2.60;;;0.20;78.00;;;;;;5055899;28;20407;-73
2021/01/29 14:08:24;;;;;;;5.23;1.97;;;0.30;78.30;;;;;;5062638;28;20036;-73
2021/01/29 14:11:16;;;;;;;7.10;2.53;;;0.20;78.70;;;;;;5037836;28;20409;-73
2021/01/29 14:13:56;;;;;;;6.23;2.40;;;0.20;78.80;;;;;;5019132;28;20102;-73
2021/01/29 14:16:40;;;;;;;6.10;1.75;;;0.20;79.30;;;;;;5057854;28;20033;-73
2021/01/29 14:19:23;;;;;;;7.20;2.40;;;0.20;79.60;;;;;;5061428;28;20037;-73
2021/01/29 14:22:17;;;;;;;8.10;2.20;;;0.20;79.70;;;;;;5048274;28;20033;-73